Hlavní strana
METAR-TAF:

METAR-TAF

Letiště :

Yaoundé, Kamerun

zeměpisná šířka: 03-50N, zeměpisná délka: 011-31E, výška: 751 m

Aktuální stav počasí

Zpráva byla vytvořena před 1 hodinou a 2 minutami, v 22:00 UTC
Teplota 24°C
Vlhkost vzduchu 94%
Tlak 1017 hPa
Viditelnost: 8000 m
Polojasno ve výšce 600 ft

METAR: FKYS 222200Z /////KT 8000 SCT006 24/23 Q1017 TEMPO BKN006

Čas: 00:02 (23:02 UTC)

Předpověď počasí

Zpráva byla vytvořena před 6 hodinami a 2 minutami, v 17:00 UTC
Předpověď platná od 22 v 18 UTC do 23 v 18 UTC
vítr z různých směrů 5 kt
Viditelnost: 7000 m
Polojasno ve výšce 1300 ft
Změna
od 22 v 21 UTC do 22 v 23 UTC
Oblačno až skoro zataženo ve výšce 600 ft
Dočasný
od 23 v 04 UTC do 23 v 06 UTC
Viditelnost: 2000 m
kouřmo
Změna
od 23 v 06 UTC do 23 v 10 UTC
Oblačno až skoro zataženo ve výšce 1600 ft

TAF: FKYS 221700Z 2218/2318 VRB05KT 7000 SCT013 BECMG 2221/2223 BKN006 TEMPO 2304/2306 2000 BR BECMG 2306/2310 BKN016

Stav a předpovědi počasí z více než 4 000 letišť (zprávy METAR a TAF).

Červené a žluté tečky na mapě představují dostupné meteorologické stanice.

Když kurzor umístíte na tečku, zobrazí se název stanice.

Pak kliknutím zobrazíte stav a předpověď počasí.

Chcete-li změnit mapu, kliknutím na zelené tlačítko se znaménkem +mapu přiblížíte, kliknutím na zelené tlačítko se znaménkem – mapu oddálíte a kliknutím na zelené šipky přejdete na sousední mapy.


METAR-TAF: